x

Central Caribbean - 210 Nm Sse Of Kingston, Jamaica (42058) Wave Buoy

4:50 - Fri 24th Oct 2014 All times are EST. -5 hours from GMT.

  • Sig Wave height 3.6ft
  • Swell Direction
  • Peak Period 6s
  • Average Period 5s
  • Wind
    11mph, 13mph gusts
  • Sea Temp 85°f
  • Luft Temp 84°f
  • Sea Pressure 1009mb
  • Central Caribbean - 210 Nm Sse Of Kingston, Jamaica
  • Central Caribbean - 210 Nm Sse Of Kingston, Jamaica

More Historic Weather Station data

Upgrade to MSW Pro to gain access to the past 30 days of data for over 8000 Wavebouys and Weather Stations around the globe.

Join Pro

Comparision Forecast

View Surf forecast
   
Fr 10/24 4:50 3.5ft 6s 5s 11 13 mph 1009mb 85f 84f
3:50 3.5ft 6s 4s 16 18 mph 1009.1mb 85f 84f
2:50 3.5ft 5s 4s 13 16 mph 1009.2mb 85f 84f
1:50 3.5ft 6s 4s 13 16 mph 1009.6mb 85f 84f
12:50 3.5ft 6s 4s 13 16 mph 1010.5mb 85f 84f
11:50 3.5ft 6s 4s 16 18 mph 1010.9mb 84f 84f
10:50 3.5ft 6s 4s 16 18 mph 1011.6mb 84f 84f
9:50 3.5ft 6s 4s 16 18 mph 1011.8mb 84f 84f
8:50 3.5ft 6s 4s 16 18 mph 1012.2mb 84f 84f
7:50 3.5ft 6s 4s 16 18 mph 1011.8mb 84f 84f
6:50 3.5ft 6s 4s 16 18 mph 1011.5mb 84f 84f
5:50 3.5ft 6s 4s 16 18 mph 1010.7mb 84f 83f
4:50 3.5ft 6s 4s 16 18 mph 1010.1mb 84f 83f
3:50 3.5ft 6s 4s 16 18 mph 1009.9mb 84f 83f
2:50 3.5ft 6s 4s 16 18 mph 1010.1mb 84f 83f
1:50 3.5ft 6s 5s 16 18 mph 1010.5mb 84f 83f
12:50 3.5ft 6s 5s 16 18 mph 1010.9mb 84f 84f
Do 10/23 11:50 3.5ft 6s 5s 16 18 mph 1011.6mb 84f 84f
10:50 3.5ft 6s 5s 16
mph
1012.1mb 84f 84f
9:50 3.5ft 6s 4s 13 16 mph 1012mb 84f 84f
8:50 3.5ft 6s 4s 13 18 mph 1012mb 84f 84f
7:50 3.5ft 6s 4s 16 18 mph 1011mb 84f 84f
6:50 3.5ft 6s 4s 16 18 mph 1009.8mb 84f 84f
5:50 3.5ft 6s 4s 18
mph
1009mb 84f 84f
4:50 3.5ft 6s 4s 18 20 mph 1008.8mb 85f 84f
3:50 3.5ft 6s 4s 16 18 mph 1008.9mb 85f 84f
2:50 4ft 6s 5s 18 20 mph 1009.2mb 85f 84f
1:50 3.5ft 6s 4s 18
mph
1009.5mb 85f 84f
12:50 3.5ft 6s 5s 18 20 mph 1010.3mb 85f 84f
11:50 3.5ft 6s 5s 20 25 mph 1010.9mb 85f 82f
10:50 3.5ft 6s 5s 13 16 mph 1012mb 85f 84f
9:50 3.5ft 6s 5s 13 16 mph 1012.6mb 84f 84f
8:50 3.5ft 7s 5s 11 16 mph 1012.5mb 84f 84f
7:50 4ft 6s 5s 13 16 mph 1011.7mb 84f 84f
6:50 4.5ft 6s 5s 13 16 mph 1011mb 84f 84f
5:50 4.5ft 6s 5s 13 18 mph 1010.7mb 84f 83f
4:50 4ft 6s 5s 13 16 mph 1010.3mb 84f 83f
3:50 4.5ft 6s 5s 16 20 mph 1010.1mb 84f 83f
2:50 4.5ft 7s 5s 16 18 mph 1009.9mb 84f 83f
1:50 4.5ft 6s 5s 16 18 mph 1009.8mb 84f 83f
12:50 4.5ft 6s 5s 16 18 mph 1010.6mb 84f 83f
Mi 10/22 11:50 4.5ft 7s 5s 16 20 mph 1011.3mb 84f 84f
10:50 4.5ft 7s 5s 18 20 mph 1011.7mb 84f 84f
9:50 4.5ft 7s 5s 16 18 mph 1012mb 84f 84f
8:50 4.5ft 6s 5s 16 18 mph 1011.7mb 84f 84f
7:50 4.5ft 6s 5s 18 20 mph 1010.9mb 84f 84f
6:50 4.5ft 6s 5s 16 20 mph 1010mb 84f 84f
5:50 4.5ft 6s 5s 16 18 mph 1009.4mb 84f 84f
4:50 4.5ft 6s 5s 16 18 mph 1009.2mb 85f 84f
3:50 5ft 6s 5s 16 20 mph 1009.1mb 85f 84f
2:50 4.5ft 6s 5s 16 18 mph 1009.5mb 85f 84f
1:50 4.5ft 6s 5s 18 20 mph 1010.1mb 85f 84f
12:50 4.5ft 6s 5s 16 18 mph 1011.1mb 85f 84f
11:50 4.5ft 6s 5s 16 18 mph 1011.7mb 84f 84f
10:50 4.5ft 6s 5s 18 20 mph 1012.5mb 84f 84f
9:50 4.5ft 6s 4s 18 22 mph 1012.8mb 84f 84f
8:50 4.5ft 6s 5s 20 22 mph 1012.6mb 84f 84f
7:50 4.5ft 5s 4s 20 25 mph 1012mb 84f 84f
6:50 4.5ft 6s 5s 20 25 mph 1011.5mb 84f 84f
5:50 4.5ft 6s 5s 20 22 mph 1011mb 84f 84f
4:50 4ft 6s 4s 18 22 mph 1010.5mb 84f 84f
3:50 4.5ft 6s 4s 18 22 mph 1010.1mb 84f 84f
2:50 4ft 6s 4s 18 20 mph 1009.9mb 84f 84f
1:50 4.5ft 6s 5s 20 25 mph 1010mb 84f 84f
12:50 4ft 6s 5s 18 22 mph 1010.7mb 84f 84f
Di 10/21 11:50 3.5ft 6s 5s 18 20 mph 1011.3mb 84f 84f
10:50 4ft 6s 5s 16 18 mph 1011.8mb 84f 84f
9:50 4ft 6s 5s 16 18 mph 1011.8mb 84f 84f
8:50 4.5ft 6s 5s 16 20 mph 1011.6mb 84f 84f
7:50 4ft 6s 5s 16 20 mph 1011.3mb 84f 84f
6:50 4.5ft 6s 5s 16 18 mph 1010.2mb 84f 84f
5:50 4.5ft 6s 5s 16 18 mph 1009.5mb 84f 84f
4:50 4.5ft 6s 5s 18 20 mph 1009mb 84f 84f
3:50 4.5ft 6s 5s 18 20 mph 1008.7mb 84f 84f
2:50 5ft 6s 5s 18 22 mph 1009.3mb 84f 83f
1:50 5ft 6s 5s 18 20 mph 1009.9mb 84f 84f
12:50 4.5ft 6s 5s 18 20 mph 1010.5mb 84f 84f
11:50 5ft 6s 5s 18 22 mph 1011.2mb 84f 84f
10:50 5ft 6s 5s 18 20 mph 1012mb 84f 84f
9:50 5ft 6s 5s 20 22 mph 1012.3mb 84f 85f
8:50 4.5ft 6s 5s 18 20 mph 1012.2mb 84f 83f
7:50 4ft 6s 5s 20 22 mph 1011.6mb 84f 85f
6:50 4ft 6s 5s 18 20 mph 1011mb 84f 84f
5:50 4.5ft 6s 5s 16 18 mph 1010.5mb 84f 82f
4:50 4.5ft 6s 5s 18 22 mph 1010mb 84f 82f
3:50 4.5ft 6s 5s 27 34 mph 1010mb 84f 81f
2:50 4.5ft 6s 5s 13 18 mph 1009.9mb 84f 83f
1:50 4.5ft 6s 5s 16 18 mph 1010.2mb 84f 83f
12:50 5ft 6s 5s 16 18 mph 1011.1mb 84f 83f
Mo 10/20 11:50 4.5ft 6s 5s 16 18 mph 1011.8mb 84f 83f